Texas General Land Office
 Texas General Land Office
 George P. Bush, Commissioner

 Oil Spill Prevention
 & Response

Texas Automated Buoy System
Real Time Ocean Observations
Supporting Oil Spill Prevention and
Response since 1995
Geochemical and Environmental Research Group

TABS Buoy W -- Texas Automated Buoy System

TABS Buoy W Conditions at 06/24/2019 22:00 UTC (06/24/2019 17:00 CDT)
28° 21.0420'N   96° 0.3480'W
AA3900 DCS - sensor depth 2m
Water Depth: 72 feet (21 meters)
Speed: 54.00 cm/s (1.05 kts) Direction: 288 °T (WNW) Water Temp: 29°C (84 °F)
System Voltage: 0.0 V Signal Strength: 0.0 dB Ping Count: 0
  


IMPORTANT: Notice to Mariners


Today's Velocity Data (download)

   Date   |  Time  |   East |   North|   Speed|  Dir | WaterT |
          |  (UTC) |  (cm/s)|  (cm/s)|  (cm/s)| (°T) |  (°C)  |
==========+========+========+========+========+======+========+
06/23/2019 02:00:00    -8.39    12.44    15.00  326.0   45.7
06/23/2019 11:30:00    -4.66   -12.14    13.00  201.0   29.3
06/23/2019 19:30:00     6.53    26.20    27.00   14.0   30.0
06/23/2019 20:30:00     7.25    27.05    28.00   15.0   29.7
06/23/2019 21:00:00    12.71    24.95    28.00   27.0   29.7
06/23/2019 21:30:00    11.64    20.99    24.00   29.0   29.7
06/23/2019 22:00:00     6.47    24.15    25.00   15.0   29.7
06/23/2019 22:30:00     4.31    30.70    31.00    8.0   29.7
06/23/2019 23:00:00     6.45    30.32    31.00   12.0   30.0
06/23/2019 23:30:00     6.53    26.20    27.00   14.0   30.0
06/24/2019 00:00:00     5.15    26.50    27.00   11.0   22.7
06/24/2019 00:30:00     3.90    27.73    28.00    8.0   29.7
06/24/2019 01:00:00     0.42     7.99     8.00    3.0   29.7
06/24/2019 01:30:00    -6.30    27.28    28.00  347.0   29.7
06/24/2019 02:00:00    -4.87    12.05    13.00  338.0   29.7
06/24/2019 02:30:00   -10.09    29.31    31.00  341.0   29.7
06/24/2019 03:00:00    -9.10    31.72    33.00  344.0   29.7
06/24/2019 03:30:00   -12.74    31.52    34.00  338.0   29.7
06/24/2019 04:00:00   -10.20    35.57    37.00  344.0   29.7
06/24/2019 04:30:00    -6.26    39.51    40.00  351.0   29.7
06/24/2019 07:00:00     3.97    37.79    38.00    6.0   29.7
06/24/2019 07:30:00     6.87    35.34    36.00   11.0   29.7
06/24/2019 08:00:00     4.69    29.63    30.00    9.0   29.5
06/24/2019 08:30:00     6.68    34.36    35.00   11.0   29.5
06/24/2019 09:00:00     8.71    34.93    36.00   14.0   29.5
06/24/2019 09:30:00     7.51    28.01    29.00   15.0   29.5
06/24/2019 10:00:00    10.55    24.85    27.00   23.0   29.5
06/24/2019 10:30:00    13.00    22.52    26.00   30.0   29.3
06/24/2019 11:00:00     8.51     2.93     9.00   71.0   29.3
06/24/2019 11:30:00     7.08    10.90    13.00   33.0   29.3
06/24/2019 12:00:00    13.38    14.86    20.00   42.0   27.3
06/24/2019 12:30:00     7.08    10.90    13.00   33.0   29.5
06/24/2019 13:00:00    11.14     6.70    13.00   59.0   29.5
06/24/2019 13:30:00     3.08     8.46     9.00   20.0   29.5
06/24/2019 14:00:00     3.18     6.24     7.00   27.0   29.5
06/24/2019 14:30:00    -7.06    -3.76     8.00  242.0   29.5
06/24/2019 15:00:00   -11.89   -10.71    16.00  228.0   29.0
06/24/2019 15:30:00   -18.86   -11.33    22.00  239.0   29.3
06/24/2019 16:00:00   -15.49   -22.12    27.00  215.0   29.0
06/24/2019 16:30:00   -25.65   -20.77    33.00  231.0   29.0
06/24/2019 17:00:00   -29.14   -15.49    33.00  242.0   29.0
06/24/2019 18:30:00   -52.82   -11.23    54.00  258.0   29.0
06/24/2019 19:00:00   -54.87    -3.84    55.00  266.0   29.0
06/24/2019 19:30:00   -56.00     0.00    56.00  270.0   29.0
06/24/2019 20:00:00   -52.48     7.38    53.00  278.0   29.0
06/24/2019 20:30:00   -53.99    10.49    55.00  281.0   29.0
06/24/2019 21:00:00   -54.09    14.49    56.00  285.0   28.7
06/24/2019 21:30:00   -51.43    12.82    53.00  284.0   28.7
06/24/2019 22:00:00   -51.36    16.69    54.00  288.0   28.7



       
 

Today's Temperature - Salinity Data     (Download)


   Date   |  Time  |   Temp |   Cond |Salinity| Density|SoundVel|
          |  (UTC) |   (°C) | (ms/cm)|        | kg/m^3 |  (m/s) |
==========+========+========+========+========+========+========+
06/17/2019 09:00:00    29.11     4.54    26.91     0.00     0.00